sensor_id;sensor_type;location;lat;lon;timestamp;pressure;altitude;pressure_sealevel;temperature;humidity
8061;BME280;4073;42.626;25.386;2024-03-23T00:54:21;97338.91;;;3.98;100.00
8061;BME280;4073;42.626;25.386;2024-03-23T00:56:47;97334.75;;;4.02;100.00
8061;BME280;4073;42.626;25.386;2024-03-23T00:59:12;97338.38;;;4.08;100.00
8061;BME280;4073;42.626;25.386;2024-03-23T01:01:39;97329.84;;;4.06;100.00
8061;BME280;4073;42.626;25.386;2024-03-23T01:04:04;97321.69;;;4.07;100.00
8061;BME280;4073;42.626;25.386;2024-03-23T01:06:30;97339.38;;;4.07;100.00
8061;BME280;4073;42.626;25.386;2024-03-23T01:08:55;97342.63;;;4.09;100.00
8061;BME280;4073;42.626;25.386;2024-03-23T01:11:21;97341.31;;;4.00;100.00
8061;BME280;4073;42.626;25.386;2024-03-23T01:13:46;97335.31;;;3.93;100.00
8061;BME280;4073;42.626;25.386;2024-03-23T01:16:12;97334.84;;;3.84;100.00
8061;BME280;4073;42.626;25.386;2024-03-23T01:18:37;97335.06;;;3.83;100.00
8061;BME280;4073;42.626;25.386;2024-03-23T01:21:03;97332.78;;;3.86;100.00
8061;BME280;4073;42.626;25.386;2024-03-23T01:23:28;97332.41;;;3.83;100.00
8061;BME280;4073;42.626;25.386;2024-03-23T01:25:54;97323.44;;;3.72;100.00
8061;BME280;4073;42.626;25.386;2024-03-23T01:28:20;97332.53;;;3.76;100.00
8061;BME280;4073;42.626;25.386;2024-03-23T01:30:46;97332.75;;;3.75;100.00
8061;BME280;4073;42.626;25.386;2024-03-23T01:33:12;97327.63;;;3.62;100.00
8061;BME280;4073;42.626;25.386;2024-03-23T01:35:38;97323.22;;;3.56;100.00
8061;BME280;4073;42.626;25.386;2024-03-23T01:38:04;97327.34;;;3.52;100.00
8061;BME280;4073;42.626;25.386;2024-03-23T01:40:29;97334.19;;;3.41;100.00
8061;BME280;4073;42.626;25.386;2024-03-23T01:43:04;97331.56;;;3.23;100.00
8061;BME280;4073;42.626;25.386;2024-03-23T01:45:31;97322.09;;;3.16;100.00
8061;BME280;4073;42.626;25.386;2024-03-23T01:47:57;97321.81;;;3.06;100.00
8061;BME280;4073;42.626;25.386;2024-03-23T01:50:23;97321.28;;;2.97;100.00
8061;BME280;4073;42.626;25.386;2024-03-23T01:52:51;97323.63;;;2.69;100.00
8061;BME280;4073;42.626;25.386;2024-03-23T01:55:17;97312.28;;;2.68;100.00
8061;BME280;4073;42.626;25.386;2024-03-23T01:57:43;97316.75;;;2.68;100.00
8061;BME280;4073;42.626;25.386;2024-03-23T02:00:08;97313.22;;;2.74;100.00
8061;BME280;4073;42.626;25.386;2024-03-23T02:02:46;97312.09;;;2.63;100.00
8061;BME280;4073;42.626;25.386;2024-03-23T02:05:13;97314.69;;;2.70;100.00
8061;BME280;4073;42.626;25.386;2024-03-23T02:07:39;97308.75;;;2.74;100.00
8061;BME280;4073;42.626;25.386;2024-03-23T02:10:08;97310.91;;;2.84;100.00
8061;BME280;4073;42.626;25.386;2024-03-23T02:12:35;97310.16;;;2.95;100.00
8061;BME280;4073;42.626;25.386;2024-03-23T02:15:01;97309.28;;;3.01;100.00
8061;BME280;4073;42.626;25.386;2024-03-23T02:17:28;97312.50;;;3.03;100.00
8061;BME280;4073;42.626;25.386;2024-03-23T02:19:54;97304.34;;;3.05;100.00
8061;BME280;4073;42.626;25.386;2024-03-23T02:22:19;97305.97;;;3.06;100.00
8061;BME280;4073;42.626;25.386;2024-03-23T02:24:45;97301.88;;;3.10;100.00
8061;BME280;4073;42.626;25.386;2024-03-23T02:27:11;97300.47;;;3.07;100.00
8061;BME280;4073;42.626;25.386;2024-03-23T02:29:37;97300.41;;;3.14;100.00
8061;BME280;4073;42.626;25.386;2024-03-23T02:32:03;97303.81;;;3.14;100.00
8061;BME280;4073;42.626;25.386;2024-03-23T02:34:28;97298.03;;;3.06;100.00
8061;BME280;4073;42.626;25.386;2024-03-23T02:36:54;97290.41;;;2.98;100.00
8061;BME280;4073;42.626;25.386;2024-03-23T02:39:19;97294.66;;;2.99;100.00
8061;BME280;4073;42.626;25.386;2024-03-23T02:41:45;97291.69;;;2.95;100.00
8061;BME280;4073;42.626;25.386;2024-03-23T02:44:10;97297.53;;;2.97;100.00
8061;BME280;4073;42.626;25.386;2024-03-23T02:46:38;97297.84;;;2.89;100.00
8061;BME280;4073;42.626;25.386;2024-03-23T02:49:03;97298.03;;;2.88;100.00
8061;BME280;4073;42.626;25.386;2024-03-23T02:51:30;97295.84;;;2.85;100.00
8061;BME280;4073;42.626;25.386;2024-03-23T02:53:55;97291.81;;;2.82;100.00
8061;BME280;4073;42.626;25.386;2024-03-23T02:56:21;97290.88;;;2.77;100.00
8061;BME280;4073;42.626;25.386;2024-03-23T02:58:47;97293.13;;;2.73;100.00
8061;BME280;4073;42.626;25.386;2024-03-23T03:01:12;97285.88;;;2.68;100.00
8061;BME280;4073;42.626;25.386;2024-03-23T03:03:38;97284.47;;;2.66;100.00
8061;BME280;4073;42.626;25.386;2024-03-23T03:06:04;97284.91;;;2.63;100.00
8061;BME280;4073;42.626;25.386;2024-03-23T03:08:29;97288.97;;;2.65;100.00
8061;BME280;4073;42.626;25.386;2024-03-23T03:10:55;97284.53;;;2.59;100.00
8061;BME280;4073;42.626;25.386;2024-03-23T03:13:20;97290.47;;;2.55;100.00
8061;BME280;4073;42.626;25.386;2024-03-23T03:15:46;97271.91;;;2.43;100.00
8061;BME280;4073;42.626;25.386;2024-03-23T03:18:12;97286.06;;;2.49;100.00
8061;BME280;4073;42.626;25.386;2024-03-23T03:20:40;97290.34;;;2.50;100.00
8061;BME280;4073;42.626;25.386;2024-03-23T03:23:06;97276.84;;;2.40;100.00
8061;BME280;4073;42.626;25.386;2024-03-23T03:25:32;97291.41;;;2.42;100.00
8061;BME280;4073;42.626;25.386;2024-03-23T03:27:58;97285.59;;;2.34;100.00
8061;BME280;4073;42.626;25.386;2024-03-23T03:30:23;97295.19;;;2.28;100.00
8061;BME280;4073;42.626;25.386;2024-03-23T03:32:49;97291.63;;;2.16;100.00
8061;BME280;4073;42.626;25.386;2024-03-23T03:35:15;97294.44;;;2.21;100.00
8061;BME280;4073;42.626;25.386;2024-03-23T03:37:41;97278.34;;;2.05;100.00
8061;BME280;4073;42.626;25.386;2024-03-23T03:40:07;97280.41;;;2.03;100.00
8061;BME280;4073;42.626;25.386;2024-03-23T03:42:34;97292.50;;;2.10;100.00
8061;BME280;4073;42.626;25.386;2024-03-23T03:45:00;97293.81;;;2.01;100.00
8061;BME280;4073;42.626;25.386;2024-03-23T03:47:25;97293.19;;;1.99;100.00
8061;BME280;4073;42.626;25.386;2024-03-23T03:49:51;97288.94;;;1.98;100.00
8061;BME280;4073;42.626;25.386;2024-03-23T03:52:16;97288.94;;;1.98;100.00
8061;BME280;4073;42.626;25.386;2024-03-23T03:54:42;97293.25;;;1.93;100.00
8061;BME280;4073;42.626;25.386;2024-03-23T03:57:07;97294.50;;;1.90;100.00
8061;BME280;4073;42.626;25.386;2024-03-23T03:59:33;97295.16;;;1.79;100.00
8061;BME280;4073;42.626;25.386;2024-03-23T04:01:58;97288.22;;;1.85;100.00
8061;BME280;4073;42.626;25.386;2024-03-23T04:04:24;97297.56;;;1.87;100.00
8061;BME280;4073;42.626;25.386;2024-03-23T04:06:49;97294.50;;;1.90;100.00
8061;BME280;4073;42.626;25.386;2024-03-23T04:09:15;97297.78;;;1.86;100.00
8061;BME280;4073;42.626;25.386;2024-03-23T04:11:40;97296.75;;;1.87;100.00
8061;BME280;4073;42.626;25.386;2024-03-23T04:14:06;97298.22;;;1.76;100.00
8061;BME280;4073;42.626;25.386;2024-03-23T04:16:34;97298.41;;;1.81;100.00
8061;BME280;4073;42.626;25.386;2024-03-23T04:19:00;97295.56;;;1.83;100.00
8061;BME280;4073;42.626;25.386;2024-03-23T04:21:26;97295.91;;;1.93;100.00
8061;BME280;4073;42.626;25.386;2024-03-23T04:23:51;97295.84;;;1.99;100.00
8061;BME280;4073;42.626;25.386;2024-03-23T04:26:17;97302.06;;;2.05;100.00
8061;BME280;4073;42.626;25.386;2024-03-23T04:28:43;97300.69;;;2.02;100.00
8061;BME280;4073;42.626;25.386;2024-03-23T04:31:08;97297.91;;;1.97;100.00
8061;BME280;4073;42.626;25.386;2024-03-23T04:33:34;97266.50;;;1.89;100.00
8061;BME280;4073;42.626;25.386;2024-03-23T04:35:59;97301.78;;;2.37;100.00
8061;BME280;4073;42.626;25.386;2024-03-23T04:38:25;97307.25;;;2.42;100.00
8061;BME280;4073;42.626;25.386;2024-03-23T04:40:57;97303.22;;;2.40;100.00
8061;BME280;4073;42.626;25.386;2024-03-23T04:43:23;97301.63;;;2.75;100.00
8061;BME280;4073;42.626;25.386;2024-03-23T04:45:49;97297.91;;;3.78;100.00
8061;BME280;4073;42.626;25.386;2024-03-23T04:48:15;97296.97;;;4.48;100.00
8061;BME280;4073;42.626;25.386;2024-03-23T04:50:40;97303.56;;;4.80;100.00
8061;BME280;4073;42.626;25.386;2024-03-23T04:53:06;97299.09;;;5.60;95.27
8061;BME280;4073;42.626;25.386;2024-03-23T04:55:32;97297.75;;;6.02;89.94
8061;BME280;4073;42.626;25.386;2024-03-23T04:57:57;97294.22;;;5.96;88.21
8061;BME280;4073;42.626;25.386;2024-03-23T05:00:23;97305.53;;;5.64;90.28
8061;BME280;4073;42.626;25.386;2024-03-23T05:02:49;97308.78;;;5.94;88.50
8061;BME280;4073;42.626;25.386;2024-03-23T05:05:14;97309.25;;;6.07;87.34
8061;BME280;4073;42.626;25.386;2024-03-23T05:07:40;97300.81;;;6.10;86.38
8061;BME280;4073;42.626;25.386;2024-03-23T05:10:08;97298.91;;;6.22;85.51
8061;BME280;4073;42.626;25.386;2024-03-23T05:12:37;97305.56;;;6.41;84.74
8061;BME280;4073;42.626;25.386;2024-03-23T05:15:06;97294.06;;;6.69;83.08
8061;BME280;4073;42.626;25.386;2024-03-23T05:17:33;97294.59;;;6.87;81.97
8061;BME280;4073;42.626;25.386;2024-03-23T05:19:58;97286.44;;;6.94;81.24
8061;BME280;4073;42.626;25.386;2024-03-23T05:22:24;97295.88;;;7.23;79.85
8061;BME280;4073;42.626;25.386;2024-03-23T05:24:49;97288.44;;;7.25;80.19
8061;BME280;4073;42.626;25.386;2024-03-23T05:27:15;97297.63;;;7.60;79.09
8061;BME280;4073;42.626;25.386;2024-03-23T05:29:40;97298.59;;;8.02;76.95
8061;BME280;4073;42.626;25.386;2024-03-23T05:32:06;97276.81;;;8.06;76.20
8061;BME280;4073;42.626;25.386;2024-03-23T05:34:32;97293.53;;;8.28;75.93
8061;BME280;4073;42.626;25.386;2024-03-23T05:36:58;97295.28;;;8.49;75.64
8061;BME280;4073;42.626;25.386;2024-03-23T05:39:23;97294.84;;;8.57;75.12
8061;BME280;4073;42.626;25.386;2024-03-23T05:41:49;97292.09;;;8.47;75.50
8061;BME280;4073;42.626;25.386;2024-03-23T05:44:14;97296.50;;;8.31;76.23
8061;BME280;4073;42.626;25.386;2024-03-23T05:46:41;97292.03;;;8.42;76.41
8061;BME280;4073;42.626;25.386;2024-03-23T05:49:06;97279.78;;;8.41;76.31
8061;BME280;4073;42.626;25.386;2024-03-23T05:51:32;97296.25;;;8.69;76.79
8061;BME280;4073;42.626;25.386;2024-03-23T05:53:57;97294.44;;;8.75;74.92
8061;BME280;4073;42.626;25.386;2024-03-23T05:56:23;97299.78;;;8.80;74.95
8061;BME280;4073;42.626;25.386;2024-03-23T05:58:48;97297.78;;;9.02;72.80
8061;BME280;4073;42.626;25.386;2024-03-23T06:01:14;97296.84;;;9.23;71.91
8061;BME280;4073;42.626;25.386;2024-03-23T06:03:39;97286.84;;;9.55;69.98
8061;BME280;4073;42.626;25.386;2024-03-23T06:06:05;97293.50;;;9.62;69.62
8061;BME280;4073;42.626;25.386;2024-03-23T06:08:35;97288.75;;;9.79;69.27
8061;BME280;4073;42.626;25.386;2024-03-23T06:11:01;97283.53;;;10.14;68.00
8061;BME280;4073;42.626;25.386;2024-03-23T06:13:26;97283.25;;;10.36;66.53
8061;BME280;4073;42.626;25.386;2024-03-23T06:15:55;97277.38;;;10.69;64.41
8061;BME280;4073;42.626;25.386;2024-03-23T06:18:21;97284.00;;;11.02;61.89
8061;BME280;4073;42.626;25.386;2024-03-23T06:20:46;97287.69;;;11.16;60.83
8061;BME280;4073;42.626;25.386;2024-03-23T06:23:12;97292.22;;;11.20;60.03
8061;BME280;4073;42.626;25.386;2024-03-23T06:25:38;97292.78;;;11.17;60.02
8061;BME280;4073;42.626;25.386;2024-03-23T06:28:03;97291.09;;;11.41;57.79
8061;BME280;4073;42.626;25.386;2024-03-23T06:30:30;97278.16;;;11.68;57.72
8061;BME280;4073;42.626;25.386;2024-03-23T06:32:57;97275.44;;;12.17;56.94
8061;BME280;4073;42.626;25.386;2024-03-23T06:35:22;97277.16;;;12.41;56.90
8061;BME280;4073;42.626;25.386;2024-03-23T06:37:48;97280.22;;;12.58;55.36
8061;BME280;4073;42.626;25.386;2024-03-23T06:40:14;97277.00;;;12.90;53.70
8061;BME280;4073;42.626;25.386;2024-03-23T06:42:39;97279.59;;;13.24;52.20
8061;BME280;4073;42.626;25.386;2024-03-23T06:45:06;97280.75;;;13.41;50.68
8061;BME280;4073;42.626;25.386;2024-03-23T06:47:31;97285.53;;;13.68;50.20
8061;BME280;4073;42.626;25.386;2024-03-23T06:49:59;97278.63;;;13.80;48.81
8061;BME280;4073;42.626;25.386;2024-03-23T06:52:27;97281.19;;;14.09;47.69
8061;BME280;4073;42.626;25.386;2024-03-23T06:54:52;97277.63;;;14.13;47.67
8061;BME280;4073;42.626;25.386;2024-03-23T06:57:18;97274.75;;;14.28;47.43
8061;BME280;4073;42.626;25.386;2024-03-23T06:59:43;97273.13;;;14.46;46.25
8061;BME280;4073;42.626;25.386;2024-03-23T07:02:09;97265.66;;;14.88;48.08
8061;BME280;4073;42.626;25.386;2024-03-23T07:04:35;97275.97;;;15.00;45.14
8061;BME280;4073;42.626;25.386;2024-03-23T07:07:01;97269.66;;;15.50;46.34
8061;BME280;4073;42.626;25.386;2024-03-23T07:09:30;97266.03;;;15.82;44.66
8061;BME280;4073;42.626;25.386;2024-03-23T07:11:58;97268.38;;;15.97;43.25
8061;BME280;4073;42.626;25.386;2024-03-23T07:14:24;97263.44;;;16.12;41.44
8061;BME280;4073;42.626;25.386;2024-03-23T07:16:50;97267.47;;;16.37;43.25
8061;BME280;4073;42.626;25.386;2024-03-23T07:19:16;97254.50;;;16.61;40.06
8061;BME280;4073;42.626;25.386;2024-03-23T07:21:45;97261.28;;;16.80;39.48
8061;BME280;4073;42.626;25.386;2024-03-23T07:24:11;97263.91;;;16.94;39.75
8061;BME280;4073;42.626;25.386;2024-03-23T07:26:36;97254.91;;;17.07;38.16
8061;BME280;4073;42.626;25.386;2024-03-23T07:29:04;97255.19;;;17.36;37.98
8061;BME280;4073;42.626;25.386;2024-03-23T07:31:29;97253.50;;;17.48;37.82
8061;BME280;4073;42.626;25.386;2024-03-23T07:33:55;97244.53;;;17.39;37.21
8061;BME280;4073;42.626;25.386;2024-03-23T07:36:20;97245.56;;;17.43;36.02
8061;BME280;4073;42.626;25.386;2024-03-23T07:38:46;97240.34;;;17.55;36.33
8061;BME280;4073;42.626;25.386;2024-03-23T07:41:15;97248.81;;;17.79;36.29
8061;BME280;4073;42.626;25.386;2024-03-23T07:43:44;97238.31;;;17.78;34.92
8061;BME280;4073;42.626;25.386;2024-03-23T07:46:10;97247.56;;;17.94;34.86
8061;BME280;4073;42.626;25.386;2024-03-23T07:48:37;97227.69;;;18.07;34.28
8061;BME280;4073;42.626;25.386;2024-03-23T07:51:06;97235.50;;;18.34;34.18
8061;BME280;4073;42.626;25.386;2024-03-23T07:53:32;97229.28;;;18.51;34.39
8061;BME280;4073;42.626;25.386;2024-03-23T07:56:00;97240.56;;;18.87;34.30
8061;BME280;4073;42.626;25.386;2024-03-23T07:58:26;97230.94;;;18.98;33.40
8061;BME280;4073;42.626;25.386;2024-03-23T08:00:56;97231.25;;;19.05;33.75
8061;BME280;4073;42.626;25.386;2024-03-23T08:03:22;97229.47;;;19.09;33.22
8061;BME280;4073;42.626;25.386;2024-03-23T08:05:48;97227.53;;;19.18;32.47
8061;BME280;4073;42.626;25.386;2024-03-23T08:08:14;97232.06;;;19.43;31.78
8061;BME280;4073;42.626;25.386;2024-03-23T08:10:52;97225.41;;;19.69;30.16
8061;BME280;4073;42.626;25.386;2024-03-23T08:13:19;97227.97;;;19.66;30.55
8061;BME280;4073;42.626;25.386;2024-03-23T08:15:45;97222.09;;;19.64;30.98
8061;BME280;4073;42.626;25.386;2024-03-23T08:18:12;97221.22;;;19.72;30.75
8061;BME280;4073;42.626;25.386;2024-03-23T08:20:37;97223.09;;;19.80;30.48
8061;BME280;4073;42.626;25.386;2024-03-23T08:23:05;97210.31;;;19.80;29.42
8061;BME280;4073;42.626;25.386;2024-03-23T08:25:31;97217.03;;;20.03;29.39
8061;BME280;4073;42.626;25.386;2024-03-23T08:27:57;97213.41;;;20.20;29.22
8061;BME280;4073;42.626;25.386;2024-03-23T08:30:22;97218.69;;;20.37;28.53
8061;BME280;4073;42.626;25.386;2024-03-23T08:32:48;97226.66;;;20.42;28.55
8061;BME280;4073;42.626;25.386;2024-03-23T08:35:14;97221.00;;;20.26;28.20
8061;BME280;4073;42.626;25.386;2024-03-23T08:37:39;97221.06;;;19.97;28.03
8061;BME280;4073;42.626;25.386;2024-03-23T08:40:05;97213.19;;;20.04;27.63
8061;BME280;4073;42.626;25.386;2024-03-23T08:42:31;97205.75;;;20.55;28.64
8061;BME280;4073;42.626;25.386;2024-03-23T08:44:57;97217.16;;;20.81;26.71
8061;BME280;4073;42.626;25.386;2024-03-23T08:47:22;97203.06;;;20.99;25.67
8061;BME280;4073;42.626;25.386;2024-03-23T08:49:48;97208.50;;;20.99;25.26
8061;BME280;4073;42.626;25.386;2024-03-23T08:52:13;97208.91;;;20.89;25.04
8061;BME280;4073;42.626;25.386;2024-03-23T08:54:39;97203.28;;;20.94;25.07
8061;BME280;4073;42.626;25.386;2024-03-23T08:57:04;97200.13;;;21.16;25.20
8061;BME280;4073;42.626;25.386;2024-03-23T08:59:30;97203.47;;;21.46;24.58
8061;BME280;4073;42.626;25.386;2024-03-23T09:01:55;97202.63;;;21.69;24.09
8061;BME280;4073;42.626;25.386;2024-03-23T09:04:21;97197.06;;;21.66;23.74
8061;BME280;4073;42.626;25.386;2024-03-23T09:06:47;97185.41;;;21.77;23.95
8061;BME280;4073;42.626;25.386;2024-03-23T09:09:12;97189.91;;;21.97;23.48
8061;BME280;4073;42.626;25.386;2024-03-23T09:11:38;97184.31;;;22.18;23.44
8061;BME280;4073;42.626;25.386;2024-03-23T09:14:03;97191.94;;;22.40;23.52
8061;BME280;4073;42.626;25.386;2024-03-23T09:16:29;97189.50;;;22.23;22.71
8061;BME280;4073;42.626;25.386;2024-03-23T09:18:54;97187.31;;;22.28;22.85
8061;BME280;4073;42.626;25.386;2024-03-23T09:21:20;97191.16;;;22.39;23.46
8061;BME280;4073;42.626;25.386;2024-03-23T09:23:45;97181.56;;;22.45;22.86
8061;BME280;4073;42.626;25.386;2024-03-23T09:26:11;97167.97;;;22.45;22.13
8061;BME280;4073;42.626;25.386;2024-03-23T09:28:37;97168.09;;;22.49;22.06
8061;BME280;4073;42.626;25.386;2024-03-23T09:31:07;97169.78;;;22.41;23.14
8061;BME280;4073;42.626;25.386;2024-03-23T09:33:33;97163.47;;;22.37;22.60
8061;BME280;4073;42.626;25.386;2024-03-23T09:36:03;97153.31;;;22.22;22.85
8061;BME280;4073;42.626;25.386;2024-03-23T09:38:29;97152.97;;;21.84;22.90
8061;BME280;4073;42.626;25.386;2024-03-23T09:40:54;97154.03;;;21.44;24.90
8061;BME280;4073;42.626;25.386;2024-03-23T09:43:20;97154.25;;;21.75;23.49
8061;BME280;4073;42.626;25.386;2024-03-23T09:45:46;97149.72;;;21.67;23.81
8061;BME280;4073;42.626;25.386;2024-03-23T09:48:12;97132.59;;;21.66;22.82
8061;BME280;4073;42.626;25.386;2024-03-23T09:50:38;97146.88;;;22.15;22.84
8061;BME280;4073;42.626;25.386;2024-03-23T09:53:06;97140.13;;;22.24;23.09
8061;BME280;4073;42.626;25.386;2024-03-23T09:55:33;97123.47;;;21.98;23.20
8061;BME280;4073;42.626;25.386;2024-03-23T09:57:59;97122.25;;;22.11;22.66
8061;BME280;4073;42.626;25.386;2024-03-23T10:00:25;97114.84;;;22.24;22.38
8061;BME280;4073;42.626;25.386;2024-03-23T10:02:51;97118.41;;;22.12;22.76
8061;BME280;4073;42.626;25.386;2024-03-23T10:05:23;97120.31;;;21.84;22.46
8061;BME280;4073;42.626;25.386;2024-03-23T10:07:51;97110.22;;;21.85;22.61
8061;BME280;4073;42.626;25.386;2024-03-23T10:10:26;97103.56;;;21.82;22.94
8061;BME280;4073;42.626;25.386;2024-03-23T10:12:52;97102.28;;;21.92;23.01
8061;BME280;4073;42.626;25.386;2024-03-23T10:15:22;97100.16;;;21.85;22.43
8061;BME280;4073;42.626;25.386;2024-03-23T10:17:49;97097.13;;;22.02;23.42
8061;BME280;4073;42.626;25.386;2024-03-23T10:20:22;97084.72;;;22.17;22.91
8061;BME280;4073;42.626;25.386;2024-03-23T10:22:49;97085.13;;;22.19;23.29
8061;BME280;4073;42.626;25.386;2024-03-23T10:25:15;97086.41;;;21.94;21.50
8061;BME280;4073;42.626;25.386;2024-03-23T10:27:41;97083.22;;;21.92;21.32
8061;BME280;4073;42.626;25.386;2024-03-23T10:30:13;97075.53;;;21.82;21.98
8061;BME280;4073;42.626;25.386;2024-03-23T10:32:40;97071.53;;;21.91;22.89
8061;BME280;4073;42.626;25.386;2024-03-23T10:35:17;97067.44;;;21.97;22.26
8061;BME280;4073;42.626;25.386;2024-03-23T10:37:48;97056.31;;;22.02;22.54
8061;BME280;4073;42.626;25.386;2024-03-23T10:40:17;97059.06;;;22.18;21.80
8061;BME280;4073;42.626;25.386;2024-03-23T10:42:44;97047.84;;;22.35;21.66
8061;BME280;4073;42.626;25.386;2024-03-23T10:45:10;97054.91;;;22.83;21.37
8061;BME280;4073;42.626;25.386;2024-03-23T10:47:37;97038.78;;;23.09;21.23
8061;BME280;4073;42.626;25.386;2024-03-23T10:50:06;97039.31;;;23.49;20.96
8061;BME280;4073;42.626;25.386;2024-03-23T10:52:34;97025.19;;;23.81;20.11
8061;BME280;4073;42.626;25.386;2024-03-23T10:55:04;97018.59;;;24.01;20.14
8061;BME280;4073;42.626;25.386;2024-03-23T10:57:42;97026.81;;;24.65;19.53
8061;BME280;4073;42.626;25.386;2024-03-23T11:00:10;97023.63;;;24.63;19.22
8061;BME280;4073;42.626;25.386;2024-03-23T11:02:36;97018.75;;;24.76;18.95
8061;BME280;4073;42.626;25.386;2024-03-23T11:05:01;97011.81;;;25.31;18.94
8061;BME280;4073;42.626;25.386;2024-03-23T11:07:28;97002.97;;;26.03;18.30
8061;BME280;4073;42.626;25.386;2024-03-23T11:09:54;97006.22;;;26.56;18.63
8061;BME280;4073;42.626;25.386;2024-03-23T11:14:50;96985.41;;;26.08;18.86
8061;BME280;4073;42.626;25.386;2024-03-23T11:17:20;96993.34;;;26.20;18.75
8061;BME280;4073;42.626;25.386;2024-03-23T11:20:02;96988.94;;;25.46;18.98
8061;BME280;4073;42.626;25.386;2024-03-23T11:25:21;96973.00;;;24.50;18.63
8061;BME280;4073;42.626;25.386;2024-03-23T11:27:48;96969.16;;;23.87;20.07
8061;BME280;4073;42.626;25.386;2024-03-23T11:30:14;96962.78;;;23.42;20.79
8061;BME280;4073;42.626;25.386;2024-03-23T11:32:42;96965.59;;;23.11;21.41
8061;BME280;4073;42.626;25.386;2024-03-23T11:35:08;96961.50;;;22.66;21.31
8061;BME280;4073;42.626;25.386;2024-03-23T11:37:36;96960.41;;;22.24;21.75
8061;BME280;4073;42.626;25.386;2024-03-23T11:40:17;96957.88;;;22.16;21.91
8061;BME280;4073;42.626;25.386;2024-03-23T11:42:43;96946.44;;;22.10;22.19
8061;BME280;4073;42.626;25.386;2024-03-23T11:45:09;96938.56;;;22.05;21.57
8061;BME280;4073;42.626;25.386;2024-03-23T11:47:35;96943.03;;;21.70;22.50
8061;BME280;4073;42.626;25.386;2024-03-23T11:50:00;96925.63;;;21.32;22.46
8061;BME280;4073;42.626;25.386;2024-03-23T11:52:26;96930.00;;;21.48;22.21
8061;BME280;4073;42.626;25.386;2024-03-23T11:54:51;96932.13;;;21.27;22.15
8061;BME280;4073;42.626;25.386;2024-03-23T11:57:16;96919.59;;;21.11;22.82
8061;BME280;4073;42.626;25.386;2024-03-23T11:59:42;96919.84;;;21.33;22.11
8061;BME280;4073;42.626;25.386;2024-03-23T12:02:10;96918.72;;;21.34;22.20
8061;BME280;4073;42.626;25.386;2024-03-23T12:04:37;96916.91;;;21.38;22.58
8061;BME280;4073;42.626;25.386;2024-03-23T12:07:19;96921.00;;;21.60;22.67
8061;BME280;4073;42.626;25.386;2024-03-23T12:09:46;96911.22;;;21.59;22.67
8061;BME280;4073;42.626;25.386;2024-03-23T12:12:18;96894.53;;;21.45;22.67
8061;BME280;4073;42.626;25.386;2024-03-23T12:14:45;96902.94;;;21.12;23.38
8061;BME280;4073;42.626;25.386;2024-03-23T12:17:14;96888.16;;;21.25;23.70
8061;BME280;4073;42.626;25.386;2024-03-23T12:19:41;96890.97;;;21.01;24.13
8061;BME280;4073;42.626;25.386;2024-03-23T12:22:08;96889.69;;;21.11;23.72
8061;BME280;4073;42.626;25.386;2024-03-23T12:24:34;96886.41;;;21.17;23.04
8061;BME280;4073;42.626;25.386;2024-03-23T12:27:03;96881.00;;;21.05;23.29
8061;BME280;4073;42.626;25.386;2024-03-23T12:29:32;96878.53;;;21.28;23.66
8061;BME280;4073;42.626;25.386;2024-03-23T12:32:02;96875.19;;;21.19;23.74
8061;BME280;4073;42.626;25.386;2024-03-23T12:34:28;96872.91;;;20.93;23.84
8061;BME280;4073;42.626;25.386;2024-03-23T12:36:54;96868.00;;;20.87;24.15
8061;BME280;4073;42.626;25.386;2024-03-23T12:39:20;96870.44;;;20.76;24.22
8061;BME280;4073;42.626;25.386;2024-03-23T12:41:49;96860.78;;;20.39;25.19
8061;BME280;4073;42.626;25.386;2024-03-23T12:44:15;96859.06;;;20.34;24.81
8061;BME280;4073;42.626;25.386;2024-03-23T12:46:44;96818.44;;;20.38;24.68
8061;BME280;4073;42.626;25.386;2024-03-23T12:49:10;96856.22;;;20.43;25.11
8061;BME280;4073;42.626;25.386;2024-03-23T12:51:35;96850.34;;;20.41;25.09
8061;BME280;4073;42.626;25.386;2024-03-23T12:54:01;96840.97;;;20.38;25.04
8061;BME280;4073;42.626;25.386;2024-03-23T12:56:27;96841.09;;;20.42;24.93
8061;BME280;4073;42.626;25.386;2024-03-23T12:58:58;96848.63;;;20.49;25.02
8061;BME280;4073;42.626;25.386;2024-03-23T13:01:24;96836.28;;;20.51;24.79
8061;BME280;4073;42.626;25.386;2024-03-23T13:03:50;96843.31;;;20.52;24.95
8061;BME280;4073;42.626;25.386;2024-03-23T13:06:16;96842.41;;;20.48;24.70
8061;BME280;4073;42.626;25.386;2024-03-23T13:08:47;96841.84;;;20.42;24.41
8061;BME280;4073;42.626;25.386;2024-03-23T13:11:15;96828.06;;;20.35;24.55
8061;BME280;4073;42.626;25.386;2024-03-23T13:13:41;96834.59;;;20.47;24.49
8061;BME280;4073;42.626;25.386;2024-03-23T13:16:07;96830.66;;;20.44;24.89
8061;BME280;4073;42.626;25.386;2024-03-23T13:18:32;96826.16;;;20.00;25.53
8061;BME280;4073;42.626;25.386;2024-03-23T13:20:58;96829.22;;;19.86;25.62
8061;BME280;4073;42.626;25.386;2024-03-23T13:23:24;96811.91;;;20.03;25.80
8061;BME280;4073;42.626;25.386;2024-03-23T13:25:51;96825.38;;;19.99;25.23
8061;BME280;4073;42.626;25.386;2024-03-23T13:28:18;96816.88;;;19.89;25.25
8061;BME280;4073;42.626;25.386;2024-03-23T13:30:54;96807.38;;;19.83;25.14
8061;BME280;4073;42.626;25.386;2024-03-23T13:33:20;96810.00;;;20.03;25.36
8061;BME280;4073;42.626;25.386;2024-03-23T13:35:53;96809.53;;;20.01;24.96
8061;BME280;4073;42.626;25.386;2024-03-23T13:38:19;96805.47;;;19.95;24.79
8061;BME280;4073;42.626;25.386;2024-03-23T13:40:59;96805.59;;;19.75;24.87
8061;BME280;4073;42.626;25.386;2024-03-23T13:43:26;96810.78;;;19.68;25.47
8061;BME280;4073;42.626;25.386;2024-03-23T13:45:57;96800.59;;;19.53;25.58
8061;BME280;4073;42.626;25.386;2024-03-23T13:48:24;96801.25;;;19.50;25.65
8061;BME280;4073;42.626;25.386;2024-03-23T13:51:00;96798.75;;;19.33;25.76
8061;BME280;4073;42.626;25.386;2024-03-23T13:53:26;96800.75;;;19.24;26.17
8061;BME280;4073;42.626;25.386;2024-03-23T13:55:51;96797.22;;;19.23;25.96
8061;BME280;4073;42.626;25.386;2024-03-23T13:58:17;96805.53;;;19.06;26.17
8061;BME280;4073;42.626;25.386;2024-03-23T14:00:43;96787.47;;;19.10;26.46
8061;BME280;4073;42.626;25.386;2024-03-23T14:03:12;96791.88;;;19.03;26.30
8061;BME280;4073;42.626;25.386;2024-03-23T14:05:38;96788.47;;;19.06;26.48
8061;BME280;4073;42.626;25.386;2024-03-23T14:08:10;96783.97;;;18.98;26.61